sensor_id;sensor_type;location;lat;lon;timestamp;P1;durP1;ratioP1;P2;durP2;ratioP2
67595;SDS011;54410;48.694;8.934;2023-06-22T00:01:27;3.85;;;2.72;;
67595;SDS011;54410;48.694;8.934;2023-06-22T00:03:53;5.40;;;3.17;;
67595;SDS011;54410;48.694;8.934;2023-06-22T00:06:19;5.40;;;3.30;;
67595;SDS011;54410;48.694;8.934;2023-06-22T00:08:45;5.72;;;3.10;;
67595;SDS011;54410;48.694;8.934;2023-06-22T00:11:11;4.82;;;3.20;;
67595;SDS011;54410;48.694;8.934;2023-06-22T00:13:37;4.28;;;3.28;;
67595;SDS011;54410;48.694;8.934;2023-06-22T00:16:04;4.43;;;3.10;;
67595;SDS011;54410;48.694;8.934;2023-06-22T00:18:30;5.18;;;2.80;;
67595;SDS011;54410;48.694;8.934;2023-06-22T00:20:56;3.72;;;2.80;;
67595;SDS011;54410;48.694;8.934;2023-06-22T00:23:23;3.35;;;3.00;;
67595;SDS011;54410;48.694;8.934;2023-06-22T00:25:49;3.97;;;2.90;;
67595;SDS011;54410;48.694;8.934;2023-06-22T00:28:15;4.03;;;2.90;;
67595;SDS011;54410;48.694;8.934;2023-06-22T00:30:41;4.72;;;2.95;;
67595;SDS011;54410;48.694;8.934;2023-06-22T00:33:07;4.38;;;3.45;;
67595;SDS011;54410;48.694;8.934;2023-06-22T00:35:33;5.85;;;3.47;;
67595;SDS011;54410;48.694;8.934;2023-06-22T00:38:00;5.47;;;3.45;;
67595;SDS011;54410;48.694;8.934;2023-06-22T00:40:27;4.10;;;3.05;;
67595;SDS011;54410;48.694;8.934;2023-06-22T00:42:53;4.82;;;3.13;;
67595;SDS011;54410;48.694;8.934;2023-06-22T00:45:20;4.18;;;3.17;;
67595;SDS011;54410;48.694;8.934;2023-06-22T00:47:47;4.47;;;2.97;;
67595;SDS011;54410;48.694;8.934;2023-06-22T00:50:18;5.05;;;3.67;;
67595;SDS011;54410;48.694;8.934;2023-06-22T00:52:47;4.60;;;3.17;;
67595;SDS011;54410;48.694;8.934;2023-06-22T00:55:16;10.07;;;3.17;;
67595;SDS011;54410;48.694;8.934;2023-06-22T00:57:43;3.90;;;2.38;;
67595;SDS011;54410;48.694;8.934;2023-06-22T01:00:11;6.38;;;4.03;;
67595;SDS011;54410;48.694;8.934;2023-06-22T01:02:43;5.45;;;3.33;;
67595;SDS011;54410;48.694;8.934;2023-06-22T01:05:11;6.70;;;3.97;;
67595;SDS011;54410;48.694;8.934;2023-06-22T01:07:52;4.63;;;3.00;;
67595;SDS011;54410;48.694;8.934;2023-06-22T01:10:25;4.88;;;2.97;;
67595;SDS011;54410;48.694;8.934;2023-06-22T01:13:01;3.78;;;2.95;;
67595;SDS011;54410;48.694;8.934;2023-06-22T01:15:28;5.95;;;3.25;;
67595;SDS011;54410;48.694;8.934;2023-06-22T01:18:02;4.55;;;2.97;;
67595;SDS011;54410;48.694;8.934;2023-06-22T01:20:29;6.25;;;3.65;;
67595;SDS011;54410;48.694;8.934;2023-06-22T01:23:05;6.20;;;3.67;;
67595;SDS011;54410;48.694;8.934;2023-06-22T01:28:45;4.10;;;3.17;;
67595;SDS011;54410;48.694;8.934;2023-06-22T01:31:13;5.15;;;3.70;;
67595;SDS011;54410;48.694;8.934;2023-06-22T01:33:41;7.50;;;4.32;;
67595;SDS011;54410;48.694;8.934;2023-06-22T01:36:07;6.50;;;3.50;;
67595;SDS011;54410;48.694;8.934;2023-06-22T01:38:34;5.07;;;3.75;;
67595;SDS011;54410;48.694;8.934;2023-06-22T01:41:01;4.88;;;2.97;;
67595;SDS011;54410;48.694;8.934;2023-06-22T01:43:28;5.55;;;3.10;;
67595;SDS011;54410;48.694;8.934;2023-06-22T01:45:59;5.78;;;3.40;;
67595;SDS011;54410;48.694;8.934;2023-06-22T01:48:25;5.30;;;3.47;;
67595;SDS011;54410;48.694;8.934;2023-06-22T01:50:52;5.50;;;3.63;;
67595;SDS011;54410;48.694;8.934;2023-06-22T01:53:20;7.00;;;3.85;;
67595;SDS011;54410;48.694;8.934;2023-06-22T01:55:46;4.90;;;3.13;;
67595;SDS011;54410;48.694;8.934;2023-06-22T01:58:13;5.75;;;3.25;;
67595;SDS011;54410;48.694;8.934;2023-06-22T02:00:40;3.60;;;3.28;;
67595;SDS011;54410;48.694;8.934;2023-06-22T02:03:11;6.50;;;3.60;;
67595;SDS011;54410;48.694;8.934;2023-06-22T02:05:50;4.75;;;3.42;;
67595;SDS011;54410;48.694;8.934;2023-06-22T02:08:20;5.85;;;3.38;;
67595;SDS011;54410;48.694;8.934;2023-06-22T02:10:48;6.32;;;3.83;;
67595;SDS011;54410;48.694;8.934;2023-06-22T02:13:14;6.10;;;3.95;;
67595;SDS011;54410;48.694;8.934;2023-06-22T02:15:41;5.07;;;3.08;;
67595;SDS011;54410;48.694;8.934;2023-06-22T02:18:07;5.70;;;3.53;;
67595;SDS011;54410;48.694;8.934;2023-06-22T02:20:35;7.45;;;3.67;;
67595;SDS011;54410;48.694;8.934;2023-06-22T02:23:01;5.78;;;3.90;;
67595;SDS011;54410;48.694;8.934;2023-06-22T02:25:27;5.10;;;3.83;;
67595;SDS011;54410;48.694;8.934;2023-06-22T02:27:53;3.53;;;2.95;;
67595;SDS011;54410;48.694;8.934;2023-06-22T02:30:19;4.43;;;3.05;;
67595;SDS011;54410;48.694;8.934;2023-06-22T02:32:45;5.30;;;3.58;;
67595;SDS011;54410;48.694;8.934;2023-06-22T02:35:11;4.78;;;3.47;;
67595;SDS011;54410;48.694;8.934;2023-06-22T02:37:37;4.35;;;3.67;;
67595;SDS011;54410;48.694;8.934;2023-06-22T02:40:07;6.88;;;3.72;;
67595;SDS011;54410;48.694;8.934;2023-06-22T02:42:37;6.57;;;4.45;;
67595;SDS011;54410;48.694;8.934;2023-06-22T02:45:03;8.25;;;4.20;;
67595;SDS011;54410;48.694;8.934;2023-06-22T02:47:29;5.55;;;3.30;;
67595;SDS011;54410;48.694;8.934;2023-06-22T02:49:55;4.60;;;3.25;;
67595;SDS011;54410;48.694;8.934;2023-06-22T02:52:21;6.93;;;3.38;;
67595;SDS011;54410;48.694;8.934;2023-06-22T02:54:47;7.30;;;4.10;;
67595;SDS011;54410;48.694;8.934;2023-06-22T02:57:13;5.25;;;3.45;;
67595;SDS011;54410;48.694;8.934;2023-06-22T02:59:40;6.47;;;3.55;;
67595;SDS011;54410;48.694;8.934;2023-06-22T03:02:06;5.82;;;3.83;;
67595;SDS011;54410;48.694;8.934;2023-06-22T03:04:33;4.47;;;3.40;;
67595;SDS011;54410;48.694;8.934;2023-06-22T03:06:59;5.50;;;3.50;;
67595;SDS011;54410;48.694;8.934;2023-06-22T03:09:26;6.57;;;3.35;;
67595;SDS011;54410;48.694;8.934;2023-06-22T03:11:55;4.95;;;3.33;;
67595;SDS011;54410;48.694;8.934;2023-06-22T03:14:21;7.90;;;4.05;;
67595;SDS011;54410;48.694;8.934;2023-06-22T03:16:47;9.07;;;3.80;;
67595;SDS011;54410;48.694;8.934;2023-06-22T03:19:13;6.07;;;4.15;;
67595;SDS011;54410;48.694;8.934;2023-06-22T03:21:39;5.57;;;3.83;;
67595;SDS011;54410;48.694;8.934;2023-06-22T03:24:06;6.00;;;4.47;;
67595;SDS011;54410;48.694;8.934;2023-06-22T03:26:32;6.38;;;4.53;;
67595;SDS011;54410;48.694;8.934;2023-06-22T03:28:58;5.25;;;3.67;;
67595;SDS011;54410;48.694;8.934;2023-06-22T03:31:24;9.45;;;4.38;;
67595;SDS011;54410;48.694;8.934;2023-06-22T03:33:49;6.82;;;4.68;;
67595;SDS011;54410;48.694;8.934;2023-06-22T03:36:16;7.18;;;4.40;;
67595;SDS011;54410;48.694;8.934;2023-06-22T03:38:48;5.78;;;4.00;;
67595;SDS011;54410;48.694;8.934;2023-06-22T03:41:15;8.02;;;3.92;;
67595;SDS011;54410;48.694;8.934;2023-06-22T03:43:41;4.97;;;3.55;;
67595;SDS011;54410;48.694;8.934;2023-06-22T03:46:07;7.20;;;4.05;;
67595;SDS011;54410;48.694;8.934;2023-06-22T03:48:33;6.38;;;4.50;;
67595;SDS011;54410;48.694;8.934;2023-06-22T03:50:59;6.45;;;4.40;;
67595;SDS011;54410;48.694;8.934;2023-06-22T03:53:25;10.52;;;4.65;;
67595;SDS011;54410;48.694;8.934;2023-06-22T03:55:51;5.68;;;3.75;;
67595;SDS011;54410;48.694;8.934;2023-06-22T03:58:18;6.70;;;4.60;;
67595;SDS011;54410;48.694;8.934;2023-06-22T04:00:48;7.32;;;4.80;;
67595;SDS011;54410;48.694;8.934;2023-06-22T04:03:15;6.72;;;4.63;;
67595;SDS011;54410;48.694;8.934;2023-06-22T04:05:41;5.55;;;4.35;;
67595;SDS011;54410;48.694;8.934;2023-06-22T04:08:07;8.32;;;4.03;;
67595;SDS011;54410;48.694;8.934;2023-06-22T04:10:33;6.63;;;5.00;;
67595;SDS011;54410;48.694;8.934;2023-06-22T04:12:59;6.93;;;4.30;;
67595;SDS011;54410;48.694;8.934;2023-06-22T04:15:25;5.75;;;4.00;;
67595;SDS011;54410;48.694;8.934;2023-06-22T04:17:51;4.85;;;3.17;;
67595;SDS011;54410;48.694;8.934;2023-06-22T04:20:17;5.63;;;3.63;;
67595;SDS011;54410;48.694;8.934;2023-06-22T04:22:43;6.60;;;3.88;;
67595;SDS011;54410;48.694;8.934;2023-06-22T04:25:11;6.63;;;3.65;;
67595;SDS011;54410;48.694;8.934;2023-06-22T04:27:37;4.07;;;3.67;;
67595;SDS011;54410;48.694;8.934;2023-06-22T04:30:05;6.55;;;3.92;;
67595;SDS011;54410;48.694;8.934;2023-06-22T04:32:32;4.47;;;3.25;;
67595;SDS011;54410;48.694;8.934;2023-06-22T04:34:58;5.07;;;3.28;;
67595;SDS011;54410;48.694;8.934;2023-06-22T04:37:25;6.80;;;3.75;;
67595;SDS011;54410;48.694;8.934;2023-06-22T04:39:51;5.78;;;4.03;;
67595;SDS011;54410;48.694;8.934;2023-06-22T04:42:17;4.22;;;2.97;;
67595;SDS011;54410;48.694;8.934;2023-06-22T04:44:43;4.72;;;3.63;;
67595;SDS011;54410;48.694;8.934;2023-06-22T04:47:09;4.05;;;3.42;;
67595;SDS011;54410;48.694;8.934;2023-06-22T04:49:36;4.50;;;3.22;;
67595;SDS011;54410;48.694;8.934;2023-06-22T04:52:02;4.15;;;2.75;;
67595;SDS011;54410;48.694;8.934;2023-06-22T04:54:29;3.83;;;2.75;;
67595;SDS011;54410;48.694;8.934;2023-06-22T04:56:57;3.40;;;2.92;;
67595;SDS011;54410;48.694;8.934;2023-06-22T04:59:23;5.88;;;3.15;;
67595;SDS011;54410;48.694;8.934;2023-06-22T05:01:57;3.47;;;2.92;;
67595;SDS011;54410;48.694;8.934;2023-06-22T05:04:24;4.03;;;2.80;;
67595;SDS011;54410;48.694;8.934;2023-06-22T05:06:50;3.65;;;3.08;;
67595;SDS011;54410;48.694;8.934;2023-06-22T05:09:16;3.33;;;2.78;;
67595;SDS011;54410;48.694;8.934;2023-06-22T05:11:42;3.60;;;2.58;;
67595;SDS011;54410;48.694;8.934;2023-06-22T05:14:08;3.67;;;2.90;;
67595;SDS011;54410;48.694;8.934;2023-06-22T05:16:34;4.20;;;3.40;;
67595;SDS011;54410;48.694;8.934;2023-06-22T05:19:01;5.07;;;3.10;;
67595;SDS011;54410;48.694;8.934;2023-06-22T05:21:28;6.20;;;3.13;;
67595;SDS011;54410;48.694;8.934;2023-06-22T05:23:54;2.88;;;2.55;;
67595;SDS011;54410;48.694;8.934;2023-06-22T05:26:21;4.05;;;2.63;;
67595;SDS011;54410;48.694;8.934;2023-06-22T05:28:47;3.03;;;2.30;;
67595;SDS011;54410;48.694;8.934;2023-06-22T05:31:13;3.85;;;2.58;;
67595;SDS011;54410;48.694;8.934;2023-06-22T05:33:39;4.50;;;3.28;;
67595;SDS011;54410;48.694;8.934;2023-06-22T05:36:05;3.55;;;2.85;;
67595;SDS011;54410;48.694;8.934;2023-06-22T05:38:31;3.50;;;2.72;;
67595;SDS011;54410;48.694;8.934;2023-06-22T05:40:57;3.95;;;2.65;;
67595;SDS011;54410;48.694;8.934;2023-06-22T05:43:22;3.13;;;2.40;;
67595;SDS011;54410;48.694;8.934;2023-06-22T05:45:48;3.30;;;2.60;;
67595;SDS011;54410;48.694;8.934;2023-06-22T05:48:14;5.32;;;2.92;;
67595;SDS011;54410;48.694;8.934;2023-06-22T05:50:40;4.55;;;3.20;;
67595;SDS011;54410;48.694;8.934;2023-06-22T05:53:06;3.35;;;2.42;;
67595;SDS011;54410;48.694;8.934;2023-06-22T05:55:32;3.88;;;2.80;;
67595;SDS011;54410;48.694;8.934;2023-06-22T05:57:58;4.28;;;2.90;;
67595;SDS011;54410;48.694;8.934;2023-06-22T06:00:23;4.00;;;2.67;;
67595;SDS011;54410;48.694;8.934;2023-06-22T06:02:49;2.70;;;2.38;;
67595;SDS011;54410;48.694;8.934;2023-06-22T06:05:15;2.42;;;1.92;;
67595;SDS011;54410;48.694;8.934;2023-06-22T06:07:42;3.53;;;1.48;;
67595;SDS011;54410;48.694;8.934;2023-06-22T06:10:08;1.95;;;1.80;;
67595;SDS011;54410;48.694;8.934;2023-06-22T06:12:34;1.75;;;1.42;;
67595;SDS011;54410;48.694;8.934;2023-06-22T06:15:00;2.20;;;1.70;;
67595;SDS011;54410;48.694;8.934;2023-06-22T06:17:26;2.08;;;1.60;;
67595;SDS011;54410;48.694;8.934;2023-06-22T06:19:52;2.05;;;1.55;;
67595;SDS011;54410;48.694;8.934;2023-06-22T06:22:18;2.20;;;1.50;;
67595;SDS011;54410;48.694;8.934;2023-06-22T06:24:45;1.90;;;1.48;;
67595;SDS011;54410;48.694;8.934;2023-06-22T06:27:12;1.60;;;1.40;;
67595;SDS011;54410;48.694;8.934;2023-06-22T06:29:38;1.77;;;1.42;;
67595;SDS011;54410;48.694;8.934;2023-06-22T06:32:04;2.10;;;1.38;;
67595;SDS011;54410;48.694;8.934;2023-06-22T06:34:29;2.55;;;1.55;;
67595;SDS011;54410;48.694;8.934;2023-06-22T06:36:55;2.45;;;1.50;;
67595;SDS011;54410;48.694;8.934;2023-06-22T06:39:21;2.25;;;1.85;;
67595;SDS011;54410;48.694;8.934;2023-06-22T06:41:47;3.08;;;1.50;;
67595;SDS011;54410;48.694;8.934;2023-06-22T06:44:12;2.42;;;1.65;;
67595;SDS011;54410;48.694;8.934;2023-06-22T06:46:38;1.13;;;1.02;;
67595;SDS011;54410;48.694;8.934;2023-06-22T06:49:03;1.77;;;1.35;;
67595;SDS011;54410;48.694;8.934;2023-06-22T06:51:29;2.38;;;1.55;;
67595;SDS011;54410;48.694;8.934;2023-06-22T06:53:55;2.42;;;1.30;;
67595;SDS011;54410;48.694;8.934;2023-06-22T06:56:21;4.03;;;1.50;;
67595;SDS011;54410;48.694;8.934;2023-06-22T06:58:49;1.60;;;1.23;;
67595;SDS011;54410;48.694;8.934;2023-06-22T07:01:15;2.38;;;1.38;;
67595;SDS011;54410;48.694;8.934;2023-06-22T07:03:40;1.88;;;1.27;;
67595;SDS011;54410;48.694;8.934;2023-06-22T07:06:07;1.67;;;1.55;;
67595;SDS011;54410;48.694;8.934;2023-06-22T07:08:33;2.75;;;1.35;;
67595;SDS011;54410;48.694;8.934;2023-06-22T07:11:01;2.35;;;1.42;;
67595;SDS011;54410;48.694;8.934;2023-06-22T07:13:27;1.80;;;1.25;;
67595;SDS011;54410;48.694;8.934;2023-06-22T07:15:52;1.77;;;1.27;;
67595;SDS011;54410;48.694;8.934;2023-06-22T07:18:18;1.73;;;1.38;;
67595;SDS011;54410;48.694;8.934;2023-06-22T07:20:44;2.50;;;1.80;;
67595;SDS011;54410;48.694;8.934;2023-06-22T07:23:10;2.08;;;1.50;;
67595;SDS011;54410;48.694;8.934;2023-06-22T07:25:36;1.90;;;1.33;;
67595;SDS011;54410;48.694;8.934;2023-06-22T07:28:02;2.10;;;1.33;;
67595;SDS011;54410;48.694;8.934;2023-06-22T07:30:29;1.42;;;1.10;;
67595;SDS011;54410;48.694;8.934;2023-06-22T07:32:56;1.73;;;1.40;;
67595;SDS011;54410;48.694;8.934;2023-06-22T07:35:22;1.30;;;1.17;;
67595;SDS011;54410;48.694;8.934;2023-06-22T07:37:48;2.80;;;1.30;;
67595;SDS011;54410;48.694;8.934;2023-06-22T07:40:14;1.90;;;1.23;;
67595;SDS011;54410;48.694;8.934;2023-06-22T07:42:40;3.78;;;1.67;;
67595;SDS011;54410;48.694;8.934;2023-06-22T07:45:06;2.13;;;1.20;;
67595;SDS011;54410;48.694;8.934;2023-06-22T07:47:33;1.40;;;1.30;;
67595;SDS011;54410;48.694;8.934;2023-06-22T07:50:00;2.20;;;1.60;;
67595;SDS011;54410;48.694;8.934;2023-06-22T07:52:27;3.25;;;1.40;;
67595;SDS011;54410;48.694;8.934;2023-06-22T07:54:53;2.35;;;1.27;;
67595;SDS011;54410;48.694;8.934;2023-06-22T07:57:19;1.50;;;1.40;;
67595;SDS011;54410;48.694;8.934;2023-06-22T07:59:45;1.73;;;1.42;;
67595;SDS011;54410;48.694;8.934;2023-06-22T08:02:11;3.58;;;1.45;;
67595;SDS011;54410;48.694;8.934;2023-06-22T08:04:37;2.15;;;1.33;;
67595;SDS011;54410;48.694;8.934;2023-06-22T08:07:03;1.95;;;1.30;;
67595;SDS011;54410;48.694;8.934;2023-06-22T08:09:29;1.50;;;1.40;;
67595;SDS011;54410;48.694;8.934;2023-06-22T08:11:57;2.05;;;1.83;;
67595;SDS011;54410;48.694;8.934;2023-06-22T08:14:23;3.65;;;1.63;;
67595;SDS011;54410;48.694;8.934;2023-06-22T08:16:49;2.33;;;1.63;;
67595;SDS011;54410;48.694;8.934;2023-06-22T08:19:15;2.75;;;1.70;;
67595;SDS011;54410;48.694;8.934;2023-06-22T08:21:42;3.65;;;1.80;;
67595;SDS011;54410;48.694;8.934;2023-06-22T08:24:08;2.60;;;1.77;;
67595;SDS011;54410;48.694;8.934;2023-06-22T08:26:34;1.70;;;1.42;;
67595;SDS011;54410;48.694;8.934;2023-06-22T08:29:05;1.95;;;1.50;;
67595;SDS011;54410;48.694;8.934;2023-06-22T08:31:31;5.25;;;1.73;;
67595;SDS011;54410;48.694;8.934;2023-06-22T08:34:00;1.88;;;1.60;;
67595;SDS011;54410;48.694;8.934;2023-06-22T08:36:26;2.47;;;1.95;;
67595;SDS011;54410;48.694;8.934;2023-06-22T08:38:57;2.95;;;1.88;;
67595;SDS011;54410;48.694;8.934;2023-06-22T08:41:27;2.40;;;1.55;;
67595;SDS011;54410;48.694;8.934;2023-06-22T08:43:53;1.55;;;1.42;;
67595;SDS011;54410;48.694;8.934;2023-06-22T08:46:19;3.20;;;1.60;;
67595;SDS011;54410;48.694;8.934;2023-06-22T08:48:48;2.08;;;1.70;;
67595;SDS011;54410;48.694;8.934;2023-06-22T08:51:15;3.90;;;1.88;;
67595;SDS011;54410;48.694;8.934;2023-06-22T08:53:42;4.53;;;1.40;;
67595;SDS011;54410;48.694;8.934;2023-06-22T08:56:08;4.40;;;1.65;;
67595;SDS011;54410;48.694;8.934;2023-06-22T08:58:34;2.65;;;1.45;;
67595;SDS011;54410;48.694;8.934;2023-06-22T09:00:59;4.47;;;1.50;;
67595;SDS011;54410;48.694;8.934;2023-06-22T09:03:26;2.42;;;1.35;;
67595;SDS011;54410;48.694;8.934;2023-06-22T09:05:52;2.50;;;1.75;;
67595;SDS011;54410;48.694;8.934;2023-06-22T09:08:18;3.30;;;1.88;;
67595;SDS011;54410;48.694;8.934;2023-06-22T09:10:43;2.67;;;1.83;;
67595;SDS011;54410;48.694;8.934;2023-06-22T09:13:09;1.60;;;1.42;;
67595;SDS011;54410;48.694;8.934;2023-06-22T09:15:35;3.70;;;1.75;;
67595;SDS011;54410;48.694;8.934;2023-06-22T09:18:00;2.40;;;1.70;;
67595;SDS011;54410;48.694;8.934;2023-06-22T09:20:26;2.22;;;1.58;;
67595;SDS011;54410;48.694;8.934;2023-06-22T09:22:51;1.88;;;1.40;;
67595;SDS011;54410;48.694;8.934;2023-06-22T09:25:17;1.60;;;1.50;;
67595;SDS011;54410;48.694;8.934;2023-06-22T09:27:45;1.50;;;1.40;;
67595;SDS011;54410;48.694;8.934;2023-06-22T09:30:11;2.22;;;1.73;;
67595;SDS011;54410;48.694;8.934;2023-06-22T09:32:37;1.50;;;1.20;;
67595;SDS011;54410;48.694;8.934;2023-06-22T09:35:04;2.85;;;1.65;;
67595;SDS011;54410;48.694;8.934;2023-06-22T09:37:31;1.73;;;1.45;;
67595;SDS011;54410;48.694;8.934;2023-06-22T09:39:57;1.80;;;1.33;;
67595;SDS011;54410;48.694;8.934;2023-06-22T09:42:23;1.98;;;1.77;;
67595;SDS011;54410;48.694;8.934;2023-06-22T09:44:48;2.45;;;1.60;;
67595;SDS011;54410;48.694;8.934;2023-06-22T09:47:14;3.63;;;1.88;;
67595;SDS011;54410;48.694;8.934;2023-06-22T09:49:40;2.50;;;1.55;;
67595;SDS011;54410;48.694;8.934;2023-06-22T09:52:06;1.63;;;1.52;;
67595;SDS011;54410;48.694;8.934;2023-06-22T09:54:32;3.70;;;1.50;;
67595;SDS011;54410;48.694;8.934;2023-06-22T09:56:58;4.90;;;2.10;;
67595;SDS011;54410;48.694;8.934;2023-06-22T09:59:24;2.00;;;1.80;;
67595;SDS011;54410;48.694;8.934;2023-06-22T10:01:50;2.00;;;1.65;;
67595;SDS011;54410;48.694;8.934;2023-06-22T10:04:16;3.08;;;1.75;;
67595;SDS011;54410;48.694;8.934;2023-06-22T10:06:42;3.88;;;1.58;;
67595;SDS011;54410;48.694;8.934;2023-06-22T10:09:08;2.70;;;1.65;;
67595;SDS011;54410;48.694;8.934;2023-06-22T10:11:34;2.55;;;1.70;;
67595;SDS011;54410;48.694;8.934;2023-06-22T10:14:01;2.22;;;1.40;;
67595;SDS011;54410;48.694;8.934;2023-06-22T10:16:32;2.38;;;1.50;;
67595;SDS011;54410;48.694;8.934;2023-06-22T10:18:58;1.73;;;1.33;;
67595;SDS011;54410;48.694;8.934;2023-06-22T10:21:23;4.60;;;1.83;;
67595;SDS011;54410;48.694;8.934;2023-06-22T10:23:51;4.25;;;1.80;;
67595;SDS011;54410;48.694;8.934;2023-06-22T10:26:17;2.35;;;1.90;;
67595;SDS011;54410;48.694;8.934;2023-06-22T10:28:43;2.65;;;1.70;;
67595;SDS011;54410;48.694;8.934;2023-06-22T10:31:08;2.63;;;1.40;;
67595;SDS011;54410;48.694;8.934;2023-06-22T10:33:34;2.47;;;1.70;;
67595;SDS011;54410;48.694;8.934;2023-06-22T10:36:00;4.20;;;1.60;;
67595;SDS011;54410;48.694;8.934;2023-06-22T10:38:26;1.80;;;1.60;;
67595;SDS011;54410;48.694;8.934;2023-06-22T10:40:52;1.77;;;1.52;;
67595;SDS011;54410;48.694;8.934;2023-06-22T10:43:18;2.25;;;1.90;;
67595;SDS011;54410;48.694;8.934;2023-06-22T10:45:44;2.22;;;1.63;;
67595;SDS011;54410;48.694;8.934;2023-06-22T10:48:10;3.03;;;1.77;;
67595;SDS011;54410;48.694;8.934;2023-06-22T10:50:36;2.92;;;2.05;;
67595;SDS011;54410;48.694;8.934;2023-06-22T10:53:02;5.15;;;2.13;;
67595;SDS011;54410;48.694;8.934;2023-06-22T10:55:27;2.00;;;1.58;;
67595;SDS011;54410;48.694;8.934;2023-06-22T10:57:53;2.83;;;1.63;;
67595;SDS011;54410;48.694;8.934;2023-06-22T11:00:19;2.15;;;1.95;;
67595;SDS011;54410;48.694;8.934;2023-06-22T11:02:44;2.38;;;1.80;;
67595;SDS011;54410;48.694;8.934;2023-06-22T11:05:10;1.95;;;1.70;;
67595;SDS011;54410;48.694;8.934;2023-06-22T11:07:36;3.20;;;2.17;;
67595;SDS011;54410;48.694;8.934;2023-06-22T11:10:02;2.70;;;2.13;;
67595;SDS011;54410;48.694;8.934;2023-06-22T11:12:28;2.10;;;1.52;;
67595;SDS011;54410;48.694;8.934;2023-06-22T11:14:54;2.95;;;1.60;;
67595;SDS011;54410;48.694;8.934;2023-06-22T11:17:22;3.60;;;1.48;;
67595;SDS011;54410;48.694;8.934;2023-06-22T11:19:48;1.67;;;1.45;;
67595;SDS011;54410;48.694;8.934;2023-06-22T11:22:14;2.90;;;1.85;;
67595;SDS011;54410;48.694;8.934;2023-06-22T11:24:40;3.00;;;1.40;;
67595;SDS011;54410;48.694;8.934;2023-06-22T11:27:06;2.15;;;1.52;;
67595;SDS011;54410;48.694;8.934;2023-06-22T11:29:32;2.85;;;1.40;;
67595;SDS011;54410;48.694;8.934;2023-06-22T11:31:58;3.55;;;1.52;;
67595;SDS011;54410;48.694;8.934;2023-06-22T11:34:23;1.63;;;1.52;;
67595;SDS011;54410;48.694;8.934;2023-06-22T11:36:49;4.03;;;1.67;;
67595;SDS011;54410;48.694;8.934;2023-06-22T11:39:15;2.13;;;1.85;;
67595;SDS011;54410;48.694;8.934;2023-06-22T11:41:41;1.50;;;1.20;;
67595;SDS011;54410;48.694;8.934;2023-06-22T11:44:07;6.63;;;2.67;;
67595;SDS011;54410;48.694;8.934;2023-06-22T11:46:32;2.30;;;1.88;;
67595;SDS011;54410;48.694;8.934;2023-06-22T11:48:59;3.85;;;1.80;;
67595;SDS011;54410;48.694;8.934;2023-06-22T11:51:25;2.65;;;1.50;;
67595;SDS011;54410;48.694;8.934;2023-06-22T11:53:51;3.05;;;1.90;;
67595;SDS011;54410;48.694;8.934;2023-06-22T11:56:18;3.35;;;1.95;;
67595;SDS011;54410;48.694;8.934;2023-06-22T11:58:43;3.88;;;1.60;;
67595;SDS011;54410;48.694;8.934;2023-06-22T12:01:09;3.95;;;1.90;;
67595;SDS011;54410;48.694;8.934;2023-06-22T12:03:35;2.85;;;1.52;;
67595;SDS011;54410;48.694;8.934;2023-06-22T12:06:01;2.08;;;1.80;;
67595;SDS011;54410;48.694;8.934;2023-06-22T12:08:27;2.05;;;1.85;;
67595;SDS011;54410;48.694;8.934;2023-06-22T12:10:53;3.65;;;1.80;;
67595;SDS011;54410;48.694;8.934;2023-06-22T12:13:19;3.83;;;1.85;;
67595;SDS011;54410;48.694;8.934;2023-06-22T12:15:44;4.82;;;2.20;;
67595;SDS011;54410;48.694;8.934;2023-06-22T12:18:10;4.20;;;2.00;;
67595;SDS011;54410;48.694;8.934;2023-06-22T12:20:36;3.03;;;1.77;;
67595;SDS011;54410;48.694;8.934;2023-06-22T12:23:02;3.58;;;1.95;;
67595;SDS011;54410;48.694;8.934;2023-06-22T12:25:27;2.85;;;1.95;;
67595;SDS011;54410;48.694;8.934;2023-06-22T12:27:54;1.95;;;1.50;;
67595;SDS011;54410;48.694;8.934;2023-06-22T12:30:21;3.45;;;1.92;;
67595;SDS011;54410;48.694;8.934;2023-06-22T12:32:47;2.75;;;1.90;;
67595;SDS011;54410;48.694;8.934;2023-06-22T12:35:12;1.92;;;1.42;;
67595;SDS011;54410;48.694;8.934;2023-06-22T12:37:42;2.50;;;1.83;;
67595;SDS011;54410;48.694;8.934;2023-06-22T12:40:08;4.45;;;2.00;;
67595;SDS011;54410;48.694;8.934;2023-06-22T12:42:34;1.83;;;1.60;;
67595;SDS011;54410;48.694;8.934;2023-06-22T12:45:00;4.32;;;1.90;;
67595;SDS011;54410;48.694;8.934;2023-06-22T12:47:26;4.25;;;1.75;;
67595;SDS011;54410;48.694;8.934;2023-06-22T12:49:52;2.35;;;2.00;;
67595;SDS011;54410;48.694;8.934;2023-06-22T12:52:18;2.55;;;2.08;;
67595;SDS011;54410;48.694;8.934;2023-06-22T12:54:44;2.92;;;2.15;;
67595;SDS011;54410;48.694;8.934;2023-06-22T12:57:10;4.30;;;2.35;;
67595;SDS011;54410;48.694;8.934;2023-06-22T12:59:36;1.90;;;1.55;;
67595;SDS011;54410;48.694;8.934;2023-06-22T13:02:02;3.03;;;2.42;;
67595;SDS011;54410;48.694;8.934;2023-06-22T13:04:27;2.00;;;1.70;;
67595;SDS011;54410;48.694;8.934;2023-06-22T13:06:53;2.63;;;1.85;;
67595;SDS011;54410;48.694;8.934;2023-06-22T13:09:19;2.53;;;2.25;;
67595;SDS011;54410;48.694;8.934;2023-06-22T13:11:45;4.70;;;2.17;;
67595;SDS011;54410;48.694;8.934;2023-06-22T13:14:10;3.42;;;2.20;;
67595;SDS011;54410;48.694;8.934;2023-06-22T13:16:36;3.17;;;1.90;;
67595;SDS011;54410;48.694;8.934;2023-06-22T13:19:02;2.17;;;1.77;;
67595;SDS011;54410;48.694;8.934;2023-06-22T13:21:28;2.50;;;1.70;;
67595;SDS011;54410;48.694;8.934;2023-06-22T13:23:53;3.13;;;1.95;;
67595;SDS011;54410;48.694;8.934;2023-06-22T13:26:20;2.13;;;1.60;;
67595;SDS011;54410;48.694;8.934;2023-06-22T13:28:46;2.22;;;1.70;;
67595;SDS011;54410;48.694;8.934;2023-06-22T13:31:11;3.90;;;1.80;;
67595;SDS011;54410;48.694;8.934;2023-06-22T13:33:37;3.10;;;1.70;;
67595;SDS011;54410;48.694;8.934;2023-06-22T13:36:03;3.55;;;1.75;;
67595;SDS011;54410;48.694;8.934;2023-06-22T13:38:31;2.47;;;1.90;;
67595;SDS011;54410;48.694;8.934;2023-06-22T13:40:57;2.47;;;1.88;;
67595;SDS011;54410;48.694;8.934;2023-06-22T13:43:24;2.08;;;1.52;;
67595;SDS011;54410;48.694;8.934;2023-06-22T13:45:51;2.40;;;1.65;;
67595;SDS011;54410;48.694;8.934;2023-06-22T13:48:17;3.08;;;1.73;;
67595;SDS011;54410;48.694;8.934;2023-06-22T13:50:43;2.80;;;1.85;;
67595;SDS011;54410;48.694;8.934;2023-06-22T13:53:08;3.78;;;2.30;;
67595;SDS011;54410;48.694;8.934;2023-06-22T13:55:34;3.92;;;2.00;;
67595;SDS011;54410;48.694;8.934;2023-06-22T13:58:00;3.00;;;1.63;;
67595;SDS011;54410;48.694;8.934;2023-06-22T14:00:26;4.05;;;2.65;;
67595;SDS011;54410;48.694;8.934;2023-06-22T14:02:53;2.40;;;1.60;;
67595;SDS011;54410;48.694;8.934;2023-06-22T14:05:18;1.90;;;1.42;;
67595;SDS011;54410;48.694;8.934;2023-06-22T14:07:45;3.90;;;1.52;;
67595;SDS011;54410;48.694;8.934;2023-06-22T14:10:10;2.72;;;1.73;;
67595;SDS011;54410;48.694;8.934;2023-06-22T14:12:36;1.85;;;1.65;;
67595;SDS011;54410;48.694;8.934;2023-06-22T14:15:02;2.55;;;1.33;;
67595;SDS011;54410;48.694;8.934;2023-06-22T14:17:28;2.90;;;1.45;;
67595;SDS011;54410;48.694;8.934;2023-06-22T14:19:53;1.98;;;1.13;;
67595;SDS011;54410;48.694;8.934;2023-06-22T14:22:20;2.40;;;1.30;;
67595;SDS011;54410;48.694;8.934;2023-06-22T14:24:47;4.15;;;0.88;;
67595;SDS011;54410;48.694;8.934;2023-06-22T14:27:12;2.15;;;1.00;;
67595;SDS011;54410;48.694;8.934;2023-06-22T14:29:38;2.35;;;1.08;;
67595;SDS011;54410;48.694;8.934;2023-06-22T14:32:04;1.10;;;0.90;;
67595;SDS011;54410;48.694;8.934;2023-06-22T14:34:31;2.33;;;1.10;;
67595;SDS011;54410;48.694;8.934;2023-06-22T14:36:57;3.63;;;0.93;;
67595;SDS011;54410;48.694;8.934;2023-06-22T14:39:23;1.50;;;1.00;;
67595;SDS011;54410;48.694;8.934;2023-06-22T14:41:49;3.80;;;1.35;;
67595;SDS011;54410;48.694;8.934;2023-06-22T14:44:15;1.17;;;0.80;;
67595;SDS011;54410;48.694;8.934;2023-06-22T14:46:41;0.95;;;0.80;;